createdAt,value
2022-09-12T00:01:22.713Z,18.73
2022-09-12T00:03:55.381Z,12.80
2022-09-12T00:06:27.348Z,18.80
2022-09-12T00:08:57.329Z,16.43
2022-09-12T00:11:25.956Z,15.80
2022-09-12T00:13:57.474Z,16.97
2022-09-12T00:16:28.674Z,10.60
2022-09-12T00:18:58.149Z,13.53
2022-09-12T00:21:26.704Z,12.60
2022-09-12T00:23:55.768Z,14.43
2022-09-12T00:26:23.980Z,15.43
2022-09-12T00:28:52.586Z,12.50
2022-09-12T00:31:23.965Z,13.93
2022-09-12T00:33:52.896Z,13.90
2022-09-12T00:36:25.547Z,16.77
2022-09-12T00:38:54.839Z,10.83
2022-09-12T00:41:25.645Z,10.07
2022-09-12T00:43:55.460Z,17.10
2022-09-12T00:46:36.922Z,12.33
2022-09-12T00:49:10.437Z,15.03
2022-09-12T00:51:42.502Z,10.67
2022-09-12T00:54:15.590Z,18.10
2022-09-12T00:56:46.386Z,10.40
2022-09-12T00:59:18.524Z,12.33
2022-09-12T01:01:51.379Z,12.60
2022-09-12T01:04:23.398Z,11.97
2022-09-12T01:06:53.951Z,15.37
2022-09-12T01:09:25.390Z,16.83
2022-09-12T01:11:59.583Z,15.40
2022-09-12T01:14:33.298Z,12.70
2022-09-12T01:17:01.597Z,9.63
2022-09-12T01:19:58.132Z,11.97
2022-09-12T01:22:57.178Z,17.77
2022-09-12T01:25:33.836Z,10.33
2022-09-12T01:28:29.196Z,11.20
2022-09-12T01:31:04.342Z,16.27
2022-09-12T01:33:57.510Z,10.10
2022-09-12T01:36:39.141Z,14.93
2022-09-12T01:39:17.761Z,13.00
2022-09-12T01:41:55.068Z,10.50
2022-09-12T01:44:33.172Z,13.67
2022-09-12T01:47:08.473Z,19.67
2022-09-12T01:49:43.804Z,9.60
2022-09-12T01:52:19.426Z,11.63
2022-09-12T01:54:52.533Z,14.80
2022-09-12T01:57:26.193Z,12.00
2022-09-12T02:00:00.280Z,13.30
2022-09-12T02:02:35.301Z,11.17
2022-09-12T02:05:09.834Z,13.43
2022-09-12T02:07:42.015Z,11.47
2022-09-12T02:10:16.277Z,10.20
2022-09-12T02:12:54.529Z,11.70
2022-09-12T02:15:28.799Z,15.93
2022-09-12T02:18:02.542Z,12.23
2022-09-12T02:20:47.866Z,11.17
2022-09-12T02:23:22.948Z,22.93
2022-09-12T02:25:56.274Z,13.00
2022-09-12T02:28:30.377Z,12.03
2022-09-12T02:31:14.773Z,15.63
2022-09-12T02:33:50.742Z,12.90
2022-09-12T02:36:34.419Z,9.90
2022-09-12T02:39:02.559Z,11.33
2022-09-12T02:41:30.537Z,10.37
2022-09-12T02:43:58.765Z,10.73
2022-09-12T02:46:32.764Z,9.40
2022-09-12T02:49:02.103Z,10.47
2022-09-12T02:51:30.281Z,16.37
2022-09-12T02:53:58.734Z,13.73
2022-09-12T02:56:31.064Z,12.53
2022-09-12T02:59:04.237Z,13.20
2022-09-12T03:02:16.659Z,15.23
2022-09-12T03:05:21.614Z,12.93
2022-09-12T03:08:20.992Z,10.73
2022-09-12T03:11:19.911Z,16.77
2022-09-12T03:13:59.986Z,15.10
2022-09-12T03:16:35.390Z,16.30
2022-09-12T03:19:13.078Z,13.57
2022-09-12T03:21:55.876Z,14.00
2022-09-12T03:24:31.993Z,9.60
2022-09-12T03:27:08.888Z,16.47
2022-09-12T03:29:39.379Z,10.97
2022-09-12T03:32:07.779Z,15.43
2022-09-12T03:34:36.186Z,18.70
2022-09-12T03:37:05.991Z,21.30
2022-09-12T03:39:34.248Z,11.57
2022-09-12T03:42:02.263Z,14.80
2022-09-12T03:44:30.326Z,13.37
2022-09-12T03:46:58.284Z,11.90
2022-09-12T03:49:26.309Z,12.17
2022-09-12T03:51:54.274Z,11.00
2022-09-12T03:54:23.766Z,14.33
2022-09-12T03:56:51.724Z,14.03
2022-09-12T03:59:19.675Z,13.30
2022-09-12T04:01:47.633Z,19.50
2022-09-12T04:04:15.614Z,18.50
2022-09-12T04:06:44.073Z,20.50
2022-09-12T04:09:12.048Z,14.80
2022-09-12T04:11:42.963Z,17.10
2022-09-12T04:14:10.922Z,11.97
2022-09-12T04:16:38.917Z,16.93
2022-09-12T04:19:06.901Z,14.00
2022-09-12T04:21:34.925Z,12.13
2022-09-12T04:24:03.440Z,13.33
2022-09-12T04:26:31.810Z,13.27
2022-09-12T04:29:01.066Z,17.20
2022-09-12T04:31:29.046Z,15.87
2022-09-12T04:33:58.727Z,7.93
2022-09-12T04:36:28.324Z,12.80
2022-09-12T04:38:56.877Z,13.63
2022-09-12T04:41:27.759Z,9.47
2022-09-12T04:44:01.565Z,10.60
2022-09-12T04:46:30.898Z,12.70
2022-09-12T04:48:59.049Z,14.77
2022-09-12T04:51:30.916Z,12.77
2022-09-12T04:54:01.012Z,18.67
2022-09-12T04:56:30.590Z,13.53
2022-09-12T04:59:01.681Z,13.60
2022-09-12T05:01:31.147Z,17.63
2022-09-12T05:04:00.780Z,12.97
2022-09-12T05:06:31.664Z,12.97
2022-09-12T05:09:01.786Z,14.13
2022-09-12T05:11:59.697Z,13.23
2022-09-12T05:14:21.874Z,14.97
2022-09-12T05:16:50.729Z,18.80
2022-09-12T05:19:22.092Z,13.07
2022-09-12T05:21:50.302Z,10.80
2022-09-12T05:24:18.393Z,36.97
2022-09-12T05:26:46.335Z,18.13
2022-09-12T05:29:14.422Z,13.20
2022-09-12T05:31:43.764Z,14.63
2022-09-12T05:34:12.627Z,13.33
2022-09-12T05:36:40.824Z,13.50
2022-09-12T05:39:08.780Z,16.53
2022-09-12T05:41:37.053Z,15.70
2022-09-12T05:44:07.481Z,12.13
2022-09-12T05:46:39.501Z,17.43
2022-09-12T05:49:11.572Z,19.70
2022-09-12T05:51:42.459Z,40.77
2022-09-12T05:54:13.672Z,15.30
2022-09-12T05:56:44.110Z,16.43
2022-09-12T05:59:14.830Z,17.63
2022-09-12T06:01:46.438Z,14.63
2022-09-12T06:04:21.391Z,21.93
2022-09-12T06:06:49.354Z,18.37
2022-09-12T06:09:18.571Z,10.33
2022-09-12T06:11:47.827Z,13.60
2022-09-12T06:14:17.800Z,14.20
2022-09-12T06:16:47.052Z,12.80
2022-09-12T06:19:19.876Z,13.17
2022-09-12T06:21:49.435Z,13.37
2022-09-12T06:24:17.587Z,11.40
2022-09-12T06:26:45.737Z,15.50
2022-09-12T06:29:14.243Z,17.07
2022-09-12T06:31:44.163Z,11.97
2022-09-12T06:34:14.936Z,15.20
2022-09-12T06:36:46.307Z,12.83
2022-09-12T06:39:16.734Z,10.77
2022-09-12T06:41:45.145Z,7.47
2022-09-12T06:44:16.516Z,12.87
2022-09-12T06:46:45.195Z,9.10
2022-09-12T06:49:14.123Z,13.17
2022-09-12T06:51:43.655Z,15.40
2022-09-12T06:54:15.254Z,10.17
2022-09-12T06:56:43.447Z,7.43
2022-09-12T06:59:11.602Z,24.03
2022-09-12T07:01:40.113Z,8.10
2022-09-12T07:04:08.422Z,10.53
2022-09-12T07:06:39.724Z,14.07
2022-09-12T07:09:13.780Z,6.33
2022-09-12T07:11:43.420Z,18.43
2022-09-12T07:14:14.188Z,12.20
2022-09-12T07:16:42.595Z,16.80
2022-09-12T07:19:12.039Z,19.07
2022-09-12T07:21:41.021Z,9.37
2022-09-12T07:24:11.427Z,11.00
2022-09-12T07:26:41.999Z,12.43
2022-09-12T07:32:05.549Z,9.93
2022-09-12T07:34:33.801Z,13.20
2022-09-12T07:37:01.759Z,9.00
2022-09-12T07:39:31.143Z,16.10
2022-09-12T07:42:00.337Z,15.53
2022-09-12T07:44:29.358Z,13.13
2022-09-12T07:46:57.301Z,15.07
2022-09-12T07:49:25.401Z,15.73
2022-09-12T07:51:53.848Z,10.50
2022-09-12T07:54:22.053Z,14.53
2022-09-12T07:56:51.647Z,15.97
2022-09-12T07:59:41.392Z,14.30
2022-09-12T08:02:16.811Z,14.40
2022-09-12T08:04:46.301Z,11.00
2022-09-12T08:07:14.303Z,14.57
2022-09-12T08:09:42.287Z,13.10
2022-09-12T08:12:11.703Z,11.90
2022-09-12T08:14:39.676Z,14.17
2022-09-12T08:17:07.646Z,11.97
2022-09-12T08:19:35.707Z,13.80
2022-09-12T08:22:04.344Z,15.00
2022-09-12T08:24:33.530Z,10.30
2022-09-12T08:27:01.529Z,10.40
2022-09-12T08:29:30.832Z,12.17
2022-09-12T08:31:58.944Z,9.20
2022-09-12T08:34:27.059Z,7.80
2022-09-12T08:36:55.177Z,10.80
2022-09-12T08:39:24.543Z,8.93
2022-09-12T08:42:02.585Z,10.43
2022-09-12T08:44:56.297Z,10.73
2022-09-12T08:47:29.884Z,10.63
2022-09-12T08:50:19.287Z,12.83
2022-09-12T08:52:58.963Z,9.67
2022-09-12T08:55:35.330Z,15.80
2022-09-12T08:58:13.895Z,8.77
2022-09-12T09:00:51.700Z,10.23
2022-09-12T09:03:51.995Z,11.07
2022-09-12T09:06:40.787Z,8.67
2022-09-12T09:09:15.935Z,12.20
2022-09-12T09:12:01.129Z,10.27
2022-09-12T09:15:01.807Z,10.13
2022-09-12T09:17:38.605Z,8.40
2022-09-12T09:20:17.347Z,9.03
2022-09-12T09:22:50.764Z,9.60
2022-09-12T09:25:23.266Z,10.03
2022-09-12T09:27:59.712Z,6.60
2022-09-12T09:30:28.553Z,9.90
2022-09-12T09:33:01.761Z,7.30
2022-09-12T09:35:40.263Z,20.13
2022-09-12T09:38:24.571Z,10.63
2022-09-12T09:41:12.397Z,8.70
2022-09-12T09:43:41.155Z,8.43
2022-09-12T09:46:09.418Z,11.10
2022-09-12T09:48:42.231Z,8.03
2022-09-12T09:51:11.714Z,8.43
2022-09-12T09:53:46.111Z,11.30
2022-09-12T09:56:29.956Z,9.97
2022-09-12T09:58:58.134Z,7.40
2022-09-12T10:01:27.423Z,8.67
2022-09-12T10:03:57.678Z,12.07
2022-09-12T10:06:34.194Z,8.03
2022-09-12T10:09:18.737Z,13.10
2022-09-12T10:11:47.712Z,5.33
2022-09-12T10:14:37.663Z,8.47
2022-09-12T10:17:33.895Z,6.37
2022-09-12T10:20:21.127Z,10.00
2022-09-12T10:22:50.643Z,4.63
2022-09-12T10:25:21.387Z,7.10
2022-09-12T10:27:55.590Z,9.43
2022-09-12T10:30:25.850Z,7.93
2022-09-12T10:32:54.136Z,6.60
2022-09-12T10:35:26.671Z,6.97
2022-09-12T10:37:58.440Z,6.77
2022-09-12T10:40:28.877Z,7.10
2022-09-12T10:42:59.393Z,7.03
2022-09-12T10:45:32.626Z,6.57
2022-09-12T10:48:07.475Z,3.13
2022-09-12T10:50:42.376Z,4.20
2022-09-12T10:53:21.292Z,4.37
2022-09-12T10:56:04.025Z,5.00
2022-09-12T10:58:55.127Z,6.97
2022-09-12T11:01:40.303Z,8.60
2022-09-12T11:04:27.130Z,5.07
2022-09-12T11:07:23.652Z,5.20
2022-09-12T11:09:59.987Z,4.20
2022-09-12T11:12:37.553Z,9.57
2022-09-12T11:15:36.324Z,6.00
2022-09-12T11:18:15.986Z,9.10
2022-09-12T11:21:10.917Z,6.63
2022-09-12T11:24:09.425Z,9.20
2022-09-12T11:27:00.720Z,6.00
2022-09-12T11:29:49.351Z,6.90
2022-09-12T11:32:59.968Z,6.33
2022-09-12T11:35:31.348Z,8.63
2022-09-12T11:38:35.628Z,4.50
2022-09-12T11:41:08.116Z,8.90
2022-09-12T11:43:42.599Z,3.77
2022-09-12T11:46:21.645Z,4.97
2022-09-12T11:48:56.676Z,5.10
2022-09-12T11:51:30.319Z,8.47
2022-09-12T11:54:07.947Z,5.27
2022-09-12T11:56:47.420Z,7.23
2022-09-12T11:59:30.095Z,6.77
2022-09-12T12:02:02.159Z,7.23
2022-09-12T12:04:39.135Z,4.93
2022-09-12T12:07:10.684Z,10.27
2022-09-12T12:09:49.174Z,5.43
2022-09-12T12:12:24.184Z,8.47
2022-09-12T12:14:55.397Z,5.93
2022-09-12T12:17:25.695Z,7.40
2022-09-12T12:20:07.638Z,7.23
2022-09-12T12:22:37.129Z,3.43
2022-09-12T12:25:39.963Z,5.33
2022-09-12T12:28:09.582Z,5.33
2022-09-12T12:31:03.134Z,3.37
2022-09-12T12:33:56.510Z,3.43
2022-09-12T12:36:35.067Z,10.53
2022-09-12T12:40:02.781Z,5.97
2022-09-12T12:43:07.605Z,3.00
2022-09-12T12:46:14.406Z,4.80
2022-09-12T12:49:10.739Z,4.30
2022-09-12T12:52:05.820Z,3.00
2022-09-12T12:54:57.424Z,2.90
2022-09-12T12:57:49.885Z,3.30
2022-09-12T13:00:32.356Z,3.23
2022-09-12T13:03:11.002Z,3.13
2022-09-12T13:05:46.307Z,3.50
2022-09-12T13:08:31.341Z,3.13
2022-09-12T13:11:02.964Z,3.13
2022-09-12T13:13:38.305Z,2.40
2022-09-12T13:16:07.655Z,6.07
2022-09-12T13:18:45.075Z,4.90
2022-09-12T13:21:16.279Z,2.93
2022-09-12T13:23:45.091Z,3.33
2022-09-12T13:26:15.440Z,2.70
2022-09-12T13:28:43.443Z,4.10
2022-09-12T13:31:22.372Z,7.87
2022-09-12T13:33:54.736Z,2.50
2022-09-12T13:36:43.500Z,3.60
2022-09-12T13:39:20.459Z,3.27
2022-09-12T13:42:34.045Z,3.00
2022-09-12T13:45:06.905Z,3.00
2022-09-12T13:47:38.524Z,3.00
2022-09-12T13:50:16.302Z,3.97
2022-09-12T13:52:50.894Z,2.63
2022-09-12T13:55:31.267Z,2.07
2022-09-12T13:58:02.136Z,2.70
2022-09-12T14:00:32.242Z,2.30
2022-09-12T14:03:18.495Z,3.53
2022-09-12T14:05:56.771Z,2.60
2022-09-12T14:08:25.878Z,4.30
2022-09-12T14:10:54.711Z,2.50
2022-09-12T14:13:26.425Z,1.97
2022-09-12T14:15:57.070Z,2.73
2022-09-12T14:18:27.755Z,1.83
2022-09-12T14:21:00.980Z,2.53
2022-09-12T14:23:32.957Z,5.33
2022-09-12T14:26:05.635Z,2.50
2022-09-12T14:28:35.172Z,2.70
2022-09-12T14:31:06.470Z,2.60
2022-09-12T14:33:48.404Z,2.50
2022-09-12T14:36:25.689Z,8.43
2022-09-12T14:38:59.175Z,2.07
2022-09-12T14:41:32.398Z,1.87
2022-09-12T14:44:04.978Z,2.13
2022-09-12T14:46:36.769Z,2.73
2022-09-12T14:49:11.819Z,2.20
2022-09-12T14:51:54.154Z,2.70
2022-09-12T14:54:39.308Z,2.20
2022-09-12T14:57:35.279Z,1.70
2022-09-12T15:00:24.163Z,4.20
2022-09-12T15:02:54.125Z,2.20
2022-09-12T15:05:28.760Z,2.77
2022-09-12T15:08:01.101Z,2.10
2022-09-12T15:10:32.261Z,2.33
2022-09-12T15:13:26.841Z,2.00
2022-09-12T15:15:57.048Z,8.63
2022-09-12T15:18:27.276Z,2.23
2022-09-12T15:20:58.574Z,2.20
2022-09-12T15:23:38.149Z,3.00
2022-09-12T15:26:07.511Z,2.60
2022-09-12T15:28:35.812Z,2.33
2022-09-12T15:31:11.438Z,3.53
2022-09-12T15:33:39.531Z,5.20
2022-09-12T15:36:17.195Z,3.00
2022-09-12T15:38:47.599Z,2.87
2022-09-12T15:41:19.017Z,4.27
2022-09-12T15:43:48.014Z,3.20
2022-09-12T15:46:19.314Z,7.23
2022-09-12T15:48:47.559Z,3.07
2022-09-12T15:51:18.355Z,22.10
2022-09-12T15:53:49.170Z,10.60
2022-09-12T15:56:18.982Z,11.20
2022-09-12T15:58:58.138Z,5.87
2022-09-12T16:01:28.180Z,8.33
2022-09-12T16:03:57.669Z,9.57
2022-09-12T16:06:26.005Z,14.80
2022-09-12T16:08:55.348Z,19.23
2022-09-12T16:11:25.934Z,22.40
2022-09-12T16:13:56.672Z,14.00
2022-09-12T16:16:24.846Z,7.50
2022-09-12T16:18:53.181Z,8.27
2022-09-12T16:21:21.270Z,10.80
2022-09-12T16:23:49.739Z,3.43
2022-09-12T16:26:19.316Z,8.43
2022-09-12T16:28:47.608Z,9.77
2022-09-12T16:31:16.060Z,6.80
2022-09-12T16:33:44.061Z,3.50
2022-09-12T16:36:14.819Z,5.63
2022-09-12T16:38:43.836Z,2.90
2022-09-12T16:41:13.799Z,4.50
2022-09-12T16:43:43.982Z,3.43
2022-09-12T16:46:15.079Z,4.53
2022-09-12T16:48:49.372Z,8.17
2022-09-12T16:51:21.305Z,2.90
2022-09-12T16:53:50.284Z,3.20
2022-09-12T16:56:19.054Z,3.80
2022-09-12T16:58:49.086Z,8.23
2022-09-12T17:01:20.196Z,3.07
2022-09-12T17:03:49.023Z,10.90
2022-09-12T17:06:18.895Z,8.23
2022-09-12T17:08:49.640Z,2.43
2022-09-12T17:11:21.059Z,4.70
2022-09-12T17:14:07.650Z,6.90
2022-09-12T17:16:38.418Z,3.60
2022-09-12T17:19:08.016Z,4.13
2022-09-12T17:21:36.510Z,6.63
2022-09-12T17:24:05.148Z,8.40
2022-09-12T17:26:33.816Z,3.57
2022-09-12T17:29:03.632Z,3.20
2022-09-12T17:31:32.426Z,10.47
2022-09-12T17:34:02.431Z,3.87
2022-09-12T17:36:32.146Z,6.07
2022-09-12T17:39:00.501Z,5.03
2022-09-12T17:41:31.742Z,4.07
2022-09-12T17:44:03.452Z,4.27
2022-09-12T17:46:35.435Z,4.20
2022-09-12T17:49:05.942Z,2.83
2022-09-12T17:51:34.024Z,3.57
2022-09-12T17:54:05.449Z,4.43
2022-09-12T17:56:37.135Z,3.80
2022-09-12T17:59:11.459Z,5.60
2022-09-12T18:01:56.897Z,4.90
2022-09-12T18:04:25.153Z,8.77
2022-09-12T18:06:53.133Z,7.50
2022-09-12T18:09:24.961Z,3.77
2022-09-12T18:11:53.804Z,3.60
2022-09-12T18:14:24.023Z,4.00
2022-09-12T18:16:52.416Z,7.93
2022-09-12T18:19:20.824Z,4.50
2022-09-12T18:21:48.829Z,3.60
2022-09-12T18:24:17.103Z,4.00
2022-09-12T18:26:45.086Z,6.57
2022-09-12T18:29:16.697Z,4.50
2022-09-12T18:31:47.617Z,6.23
2022-09-12T18:34:16.468Z,3.97
2022-09-12T18:36:47.216Z,6.33
2022-09-12T18:39:15.604Z,4.43
2022-09-12T18:41:43.913Z,10.03
2022-09-12T18:44:13.231Z,3.13
2022-09-12T18:46:41.735Z,7.43
2022-09-12T18:49:11.469Z,4.00
2022-09-12T18:51:41.711Z,3.30
2022-09-12T18:54:14.558Z,9.03
2022-09-12T18:56:43.914Z,8.50
2022-09-12T18:59:14.233Z,3.97
2022-09-12T19:01:43.336Z,7.03
2022-09-12T19:04:14.902Z,6.57
2022-09-12T19:06:46.023Z,7.43
2022-09-12T19:09:20.806Z,6.40
2022-09-12T19:11:52.572Z,8.50
2022-09-12T19:14:24.820Z,4.03
2022-09-12T19:16:53.758Z,10.73
2022-09-12T19:19:23.425Z,5.07
2022-09-12T19:21:51.485Z,6.43
2022-09-12T19:24:21.663Z,3.73
2022-09-12T19:26:50.708Z,4.60
2022-09-12T19:29:18.936Z,6.90
2022-09-12T19:31:47.323Z,4.33
2022-09-12T19:34:16.025Z,5.07
2022-09-12T19:36:47.074Z,4.07
2022-09-12T19:39:16.797Z,5.87
2022-09-12T19:41:45.503Z,3.70
2022-09-12T19:44:13.672Z,4.20
2022-09-12T19:46:41.933Z,3.70
2022-09-12T19:49:12.609Z,11.07
2022-09-12T19:51:41.117Z,6.40
2022-09-12T19:54:11.326Z,7.30
2022-09-12T19:56:39.321Z,4.80
2022-09-12T19:59:07.314Z,4.20
2022-09-12T20:01:37.007Z,5.13
2022-09-12T20:04:06.509Z,5.80
2022-09-12T20:06:34.744Z,13.87
2022-09-12T20:09:02.898Z,4.13
2022-09-12T20:11:32.301Z,10.03
2022-09-12T20:14:00.432Z,6.47
2022-09-12T20:16:29.924Z,7.23
2022-09-12T20:19:00.948Z,6.70
2022-09-12T20:21:32.808Z,4.67
2022-09-12T20:24:02.952Z,7.27
2022-09-12T20:26:32.612Z,4.60
2022-09-12T20:29:01.245Z,4.50
2022-09-12T20:31:30.093Z,5.87
2022-09-12T20:33:58.261Z,9.07
2022-09-12T20:36:26.946Z,3.33
2022-09-12T20:38:57.739Z,6.00
2022-09-12T20:41:28.123Z,3.60
2022-09-12T20:43:58.341Z,4.70
2022-09-12T20:46:27.994Z,3.40
2022-09-12T20:48:56.595Z,4.50
2022-09-12T20:51:26.724Z,4.47
2022-09-12T20:53:56.869Z,6.93
2022-09-12T20:56:26.968Z,12.70
2022-09-12T20:58:57.384Z,3.50
2022-09-12T21:01:27.663Z,7.23
2022-09-12T21:03:55.735Z,5.73
2022-09-12T21:06:24.492Z,4.97
2022-09-12T21:08:53.746Z,8.30
2022-09-12T21:11:22.972Z,14.40
2022-09-12T21:13:53.953Z,7.70
2022-09-12T21:16:26.828Z,3.13
2022-09-12T21:18:57.652Z,10.20
2022-09-12T21:21:26.684Z,4.03
2022-09-12T21:23:58.802Z,3.47
2022-09-12T21:26:27.206Z,5.03
2022-09-12T21:28:55.282Z,4.80
2022-09-12T21:31:25.296Z,3.97
2022-09-12T21:33:53.525Z,4.07
2022-09-12T21:36:21.850Z,5.33
2022-09-12T21:38:49.963Z,10.73
2022-09-12T21:41:18.559Z,4.50
2022-09-12T21:43:47.779Z,6.63
2022-09-12T21:46:15.896Z,3.23
2022-09-12T21:48:45.275Z,4.43
2022-09-12T21:51:15.786Z,6.23
2022-09-12T21:53:44.318Z,5.47
2022-09-12T21:56:12.280Z,5.33
2022-09-12T21:58:40.578Z,5.63
2022-09-12T22:01:12.994Z,6.27
2022-09-12T22:03:44.673Z,4.50
2022-09-12T22:06:16.392Z,3.40
2022-09-12T22:08:45.698Z,3.30
2022-09-12T22:11:13.725Z,5.60
2022-09-12T22:13:43.869Z,6.37
2022-09-12T22:16:12.608Z,3.37
2022-09-12T22:18:40.790Z,5.10
2022-09-12T22:21:12.268Z,3.63
2022-09-12T22:23:59.277Z,9.70
2022-09-12T22:26:28.392Z,2.93
2022-09-12T22:28:56.609Z,4.80
2022-09-12T22:31:24.669Z,3.40
2022-09-12T22:33:52.701Z,3.43
2022-09-12T22:36:20.650Z,3.67
2022-09-12T22:38:50.934Z,4.17
2022-09-12T22:41:18.887Z,3.37
2022-09-12T22:43:46.826Z,3.20
2022-09-12T22:46:14.996Z,3.77
2022-09-12T22:48:43.583Z,7.73
2022-09-12T22:51:12.418Z,4.40
2022-09-12T22:53:40.471Z,3.30
2022-09-12T22:56:10.489Z,2.53
2022-09-12T22:58:38.810Z,3.30
2022-09-12T23:01:07.338Z,4.73
2022-09-12T23:03:36.347Z,4.50
2022-09-12T23:06:05.486Z,5.90
2022-09-12T23:08:36.100Z,3.73
2022-09-12T23:11:05.476Z,5.53
2022-09-12T23:13:34.821Z,5.10
2022-09-12T23:16:05.751Z,5.10
2022-09-12T23:18:35.992Z,3.77
2022-09-12T23:21:07.446Z,5.87
2022-09-12T23:23:36.555Z,3.70
2022-09-12T23:26:07.584Z,4.17
2022-09-12T23:28:37.226Z,4.87
2022-09-12T23:31:05.510Z,7.23
2022-09-12T23:33:35.007Z,3.90
2022-09-12T23:36:06.069Z,3.60
2022-09-12T23:38:36.913Z,5.87
2022-09-12T23:41:05.657Z,8.77
2022-09-12T23:43:34.293Z,6.07
2022-09-12T23:46:04.503Z,6.50
2022-09-12T23:48:33.730Z,6.23
2022-09-12T23:51:02.114Z,6.73
2022-09-12T23:53:30.993Z,24.90
2022-09-12T23:56:00.032Z,6.77
2022-09-12T23:58:27.992Z,5.67
